createdAt,value
2022-08-30T00:01:32.896Z,57.64
2022-08-30T00:04:02.034Z,57.46
2022-08-30T00:06:30.453Z,57.96
2022-08-30T00:08:57.899Z,58.92
2022-08-30T00:11:28.171Z,59.41
2022-08-30T00:13:58.084Z,59.14
2022-08-30T00:16:26.815Z,59.75
2022-08-30T00:18:54.878Z,59.89
2022-08-30T00:21:23.365Z,60.07
2022-08-30T00:23:50.776Z,60.23
2022-08-30T00:26:17.649Z,60.25
2022-08-30T00:28:44.715Z,60.42
2022-08-30T00:31:14.933Z,60.10
2022-08-30T00:33:43.124Z,60.48
2022-08-30T00:36:09.947Z,59.21
2022-08-30T00:38:36.959Z,59.02
2022-08-30T00:41:03.961Z,58.80
2022-08-30T00:43:36.695Z,58.75
2022-08-30T00:46:08.552Z,58.78
2022-08-30T00:48:41.005Z,58.37
2022-08-30T00:51:12.632Z,58.53
2022-08-30T00:53:45.061Z,58.22
2022-08-30T00:56:14.219Z,58.18
2022-08-30T00:58:48.850Z,57.75
2022-08-30T01:01:17.236Z,57.87
2022-08-30T01:03:45.761Z,58.06
2022-08-30T01:06:17.594Z,58.00
2022-08-30T01:08:47.333Z,58.14
2022-08-30T01:11:20.196Z,58.49
2022-08-30T01:13:51.838Z,58.04
2022-08-30T01:16:19.375Z,58.41
2022-08-30T01:18:48.901Z,58.16
2022-08-30T01:21:36.839Z,58.25
2022-08-30T01:24:07.497Z,58.73
2022-08-30T01:26:36.986Z,58.77
2022-08-30T01:29:13.313Z,58.74
2022-08-30T01:31:40.408Z,58.95
2022-08-30T01:34:08.483Z,59.30
2022-08-30T01:36:44.777Z,59.46
2022-08-30T01:39:15.892Z,59.77
2022-08-30T01:41:43.628Z,59.84
2022-08-30T01:44:13.077Z,60.32
2022-08-30T01:46:47.589Z,60.42
2022-08-30T01:49:27.480Z,60.58
2022-08-30T01:52:01.108Z,61.22
2022-08-30T01:54:33.248Z,61.73
2022-08-30T01:57:09.917Z,61.72
2022-08-30T01:59:39.286Z,62.02
2022-08-30T02:02:07.443Z,61.23
2022-08-30T02:04:36.708Z,61.76
2022-08-30T02:07:05.287Z,61.02
2022-08-30T02:09:32.525Z,62.09
2022-08-30T02:11:59.519Z,61.97
2022-08-30T02:14:27.567Z,62.29
2022-08-30T02:16:54.823Z,62.26
2022-08-30T02:19:21.881Z,61.82
2022-08-30T02:21:49.790Z,62.39
2022-08-30T02:24:16.958Z,62.52
2022-08-30T02:26:43.746Z,62.00
2022-08-30T02:29:10.652Z,61.80
2022-08-30T02:31:37.629Z,62.40
2022-08-30T02:34:04.852Z,61.50
2022-08-30T02:36:32.438Z,61.69
2022-08-30T02:38:59.773Z,62.07
2022-08-30T02:41:26.630Z,61.48
2022-08-30T02:43:58.392Z,62.23
2022-08-30T02:46:25.588Z,62.26
2022-08-30T02:48:52.437Z,62.84
2022-08-30T02:51:19.770Z,62.62
2022-08-30T02:53:46.890Z,62.36
2022-08-30T02:56:14.679Z,62.44
2022-08-30T02:58:43.683Z,62.54
2022-08-30T03:01:14.475Z,62.10
2022-08-30T03:03:44.300Z,62.85
2022-08-30T03:06:11.833Z,62.50
2022-08-30T03:08:38.929Z,62.76
2022-08-30T03:11:06.436Z,63.24
2022-08-30T03:13:33.898Z,62.42
2022-08-30T03:16:00.800Z,62.66
2022-08-30T03:18:28.390Z,62.56
2022-08-30T03:20:55.553Z,62.89
2022-08-30T03:23:24.166Z,62.58
2022-08-30T03:25:53.482Z,62.83
2022-08-30T03:28:20.729Z,63.07
2022-08-30T03:30:48.068Z,63.23
2022-08-30T03:33:15.651Z,62.90
2022-08-30T03:35:42.860Z,63.31
2022-08-30T03:38:09.742Z,63.30
2022-08-30T03:40:36.743Z,63.17
2022-08-30T03:43:05.413Z,62.75
2022-08-30T03:45:32.458Z,63.39
2022-08-30T03:47:59.682Z,63.34
2022-08-30T03:50:26.833Z,63.71
2022-08-30T03:52:53.675Z,63.27
2022-08-30T03:55:21.007Z,63.68
2022-08-30T03:57:48.016Z,63.97
2022-08-30T04:00:17.278Z,63.72
2022-08-30T04:02:44.109Z,63.66
2022-08-30T04:05:12.797Z,63.41
2022-08-30T04:07:41.608Z,63.44
2022-08-30T04:10:10.302Z,63.36
2022-08-30T04:12:38.572Z,63.70
2022-08-30T04:15:06.557Z,63.48
2022-08-30T04:17:33.502Z,63.90
2022-08-30T04:20:00.627Z,63.94
2022-08-30T04:22:27.653Z,64.15
2022-08-30T04:24:54.528Z,63.83
2022-08-30T04:27:21.564Z,64.42
2022-08-30T04:29:48.718Z,64.04
2022-08-30T04:32:16.848Z,64.10
2022-08-30T04:34:43.914Z,63.86
2022-08-30T04:37:10.878Z,64.01
2022-08-30T04:39:37.821Z,64.16
2022-08-30T04:42:04.937Z,64.21
2022-08-30T04:44:32.945Z,64.66
2022-08-30T04:47:00.891Z,65.04
2022-08-30T04:49:28.094Z,64.88
2022-08-30T04:51:55.837Z,64.99
2022-08-30T04:54:22.826Z,64.94
2022-08-30T04:56:49.806Z,64.96
2022-08-30T04:59:16.885Z,64.71
2022-08-30T05:01:44.773Z,64.75
2022-08-30T05:04:14.867Z,64.54
2022-08-30T05:06:42.835Z,65.25
2022-08-30T05:09:09.854Z,64.47
2022-08-30T05:11:38.226Z,64.46
2022-08-30T05:14:06.061Z,65.33
2022-08-30T05:16:32.941Z,65.16
2022-08-30T05:19:00.233Z,64.93
2022-08-30T05:21:29.146Z,65.19
2022-08-30T05:24:01.206Z,65.04
2022-08-30T05:26:33.334Z,64.61
2022-08-30T05:29:01.377Z,64.27
2022-08-30T05:31:34.413Z,64.28
2022-08-30T05:34:03.285Z,64.59
2022-08-30T05:36:33.537Z,64.93
2022-08-30T05:39:00.758Z,64.47
2022-08-30T05:41:28.752Z,64.73
2022-08-30T05:43:59.167Z,63.54
2022-08-30T05:49:08.048Z,63.42
2022-08-30T05:51:43.485Z,62.69
2022-08-30T05:54:14.483Z,62.65
2022-08-30T05:56:45.251Z,62.60
2022-08-30T05:59:13.997Z,62.80
2022-08-30T06:01:46.998Z,62.31
2022-08-30T06:04:15.172Z,62.35
2022-08-30T06:06:44.311Z,62.55
2022-08-30T06:09:14.003Z,61.96
2022-08-30T06:11:43.952Z,62.36
2022-08-30T06:14:11.560Z,62.18
2022-08-30T06:16:46.090Z,62.44
2022-08-30T06:19:16.731Z,62.64
2022-08-30T06:21:48.516Z,62.71
2022-08-30T06:24:16.420Z,62.48
2022-08-30T06:26:47.170Z,62.32
2022-08-30T06:29:18.932Z,62.38
2022-08-30T06:31:46.393Z,62.59
2022-08-30T06:34:14.148Z,62.14
2022-08-30T06:36:42.752Z,62.54
2022-08-30T06:39:10.811Z,62.42
2022-08-30T06:41:41.561Z,62.63
2022-08-30T06:44:09.157Z,62.52
2022-08-30T06:46:38.941Z,62.21
2022-08-30T06:49:11.836Z,62.05
2022-08-30T06:51:40.193Z,62.29
2022-08-30T06:54:11.961Z,62.20
2022-08-30T06:56:48.724Z,62.74
2022-08-30T06:59:25.955Z,62.14
2022-08-30T07:01:55.395Z,61.66
2022-08-30T07:04:22.347Z,61.87
2022-08-30T07:06:49.298Z,62.05
2022-08-30T07:09:16.814Z,61.89
2022-08-30T07:11:44.754Z,61.33
2022-08-30T07:14:11.867Z,61.13
2022-08-30T07:16:39.288Z,61.15
2022-08-30T07:19:06.885Z,61.11
2022-08-30T07:21:43.775Z,61.15
2022-08-30T07:24:13.574Z,60.60
2022-08-30T07:26:47.323Z,60.42
2022-08-30T07:29:16.116Z,60.60
2022-08-30T07:31:44.693Z,59.78
2022-08-30T07:34:12.164Z,60.17
2022-08-30T07:36:40.142Z,60.05
2022-08-30T07:39:08.227Z,59.89
2022-08-30T07:41:39.027Z,59.68
2022-08-30T07:44:10.116Z,59.76
2022-08-30T07:46:39.442Z,59.90
2022-08-30T07:49:11.104Z,59.92
2022-08-30T07:51:41.176Z,59.61
2022-08-30T07:54:08.742Z,59.69
2022-08-30T07:56:36.036Z,59.97
2022-08-30T07:59:03.518Z,59.67
2022-08-30T08:01:31.325Z,59.18
2022-08-30T08:03:58.440Z,59.65
2022-08-30T08:06:25.744Z,60.07
2022-08-30T08:08:53.778Z,59.66
2022-08-30T08:11:28.457Z,59.66
2022-08-30T08:13:58.850Z,59.55
2022-08-30T08:16:29.090Z,59.89
2022-08-30T08:18:56.495Z,59.69
2022-08-30T08:21:25.898Z,59.36
2022-08-30T08:23:53.461Z,59.58
2022-08-30T08:26:24.288Z,59.51
2022-08-30T08:28:53.583Z,60.03
2022-08-30T08:31:33.291Z,60.01
2022-08-30T08:34:06.216Z,60.05
2022-08-30T08:36:36.271Z,60.32
2022-08-30T08:39:07.744Z,59.90
2022-08-30T08:42:15.287Z,60.13
2022-08-30T08:45:10.147Z,60.16
2022-08-30T08:47:59.253Z,60.10
2022-08-30T08:50:32.020Z,60.12
2022-08-30T08:53:49.396Z,59.93
2022-08-30T08:56:19.756Z,60.23
2022-08-30T08:58:52.124Z,60.01
2022-08-30T09:01:24.119Z,59.74
2022-08-30T09:03:52.086Z,59.60
2022-08-30T09:06:45.275Z,59.51
2022-08-30T09:09:13.631Z,59.16
2022-08-30T09:11:44.511Z,59.31
2022-08-30T09:14:44.205Z,58.86
2022-08-30T09:17:18.102Z,58.66
2022-08-30T09:19:46.593Z,57.95
2022-08-30T09:22:46.699Z,57.99
2022-08-30T09:25:13.728Z,57.91
2022-08-30T09:27:47.545Z,57.98
2022-08-30T09:30:27.273Z,58.21
2022-08-30T09:33:03.688Z,58.36
2022-08-30T09:35:50.495Z,58.28
2022-08-30T09:38:29.439Z,58.27
2022-08-30T09:41:00.945Z,57.55
2022-08-30T09:43:33.992Z,58.06
2022-08-30T09:46:01.061Z,58.21
2022-08-30T09:48:44.552Z,57.26
2022-08-30T09:51:11.670Z,57.42
2022-08-30T09:57:13.176Z,56.61
2022-08-30T09:59:54.896Z,57.17
2022-08-30T10:02:47.883Z,57.31
2022-08-30T10:06:01.933Z,56.97
2022-08-30T10:08:51.299Z,57.77
2022-08-30T10:11:42.272Z,56.60
2022-08-30T10:14:18.340Z,56.47
2022-08-30T10:17:23.704Z,56.09
2022-08-30T10:20:19.603Z,54.98
2022-08-30T10:23:12.663Z,55.72
2022-08-30T10:25:51.476Z,55.59
2022-08-30T10:28:36.731Z,56.04
2022-08-30T10:31:29.460Z,55.58
2022-08-30T10:34:10.160Z,55.45
2022-08-30T10:36:46.910Z,54.70
2022-08-30T10:39:32.860Z,53.81
2022-08-30T10:42:30.667Z,53.82
2022-08-30T10:45:13.498Z,54.18
2022-08-30T10:47:53.907Z,53.06
2022-08-30T10:50:29.702Z,52.69
2022-08-30T10:53:09.864Z,52.20
2022-08-30T10:55:50.011Z,52.36
2022-08-30T10:58:18.681Z,52.31
2022-08-30T11:01:12.662Z,52.89
2022-08-30T11:04:00.829Z,52.90
2022-08-30T11:07:00.321Z,53.07
2022-08-30T11:09:47.145Z,52.37
2022-08-30T11:12:17.118Z,52.63
2022-08-30T11:14:46.849Z,52.08
2022-08-30T11:17:58.741Z,50.88
2022-08-30T11:20:42.435Z,49.67
2022-08-30T11:23:18.715Z,49.76
2022-08-30T11:26:04.110Z,49.54
2022-08-30T11:28:37.183Z,50.34
2022-08-30T11:31:30.965Z,49.13
2022-08-30T11:34:01.084Z,49.56
2022-08-30T11:36:45.978Z,47.64
2022-08-30T11:39:49.095Z,47.74
2022-08-30T11:42:43.410Z,47.91
2022-08-30T11:45:22.315Z,48.09
2022-08-30T11:48:04.575Z,46.95
2022-08-30T11:50:59.908Z,46.84
2022-08-30T11:54:02.942Z,47.19
2022-08-30T11:57:00.845Z,47.89
2022-08-30T11:59:39.301Z,47.48
2022-08-30T12:02:08.307Z,47.91
2022-08-30T12:04:45.816Z,47.22
2022-08-30T12:08:01.557Z,47.12
2022-08-30T12:10:43.962Z,46.72
2022-08-30T12:13:39.457Z,47.61
2022-08-30T12:16:11.650Z,47.07
2022-08-30T12:18:50.683Z,47.60
2022-08-30T12:21:21.342Z,48.03
2022-08-30T12:23:54.616Z,47.47
2022-08-30T12:26:25.129Z,47.34
2022-08-30T12:29:05.958Z,47.25
2022-08-30T12:31:40.762Z,47.31
2022-08-30T12:34:07.739Z,47.12
2022-08-30T12:36:40.512Z,47.83
2022-08-30T12:39:22.978Z,46.73
2022-08-30T12:41:50.844Z,45.94
2022-08-30T12:44:28.859Z,44.89
2022-08-30T12:47:05.606Z,46.38
2022-08-30T12:49:38.019Z,45.82
2022-08-30T12:52:31.684Z,46.30
2022-08-30T12:55:21.993Z,44.91
2022-08-30T12:58:09.428Z,45.75
2022-08-30T13:00:42.589Z,44.84
2022-08-30T13:03:35.106Z,42.96
2022-08-30T13:06:03.561Z,43.82
2022-08-30T13:08:45.885Z,43.87
2022-08-30T13:11:29.619Z,44.32
2022-08-30T13:14:44.589Z,42.24
2022-08-30T13:17:28.946Z,41.04
2022-08-30T13:20:17.250Z,41.33
2022-08-30T13:23:08.780Z,42.05
2022-08-30T13:25:39.256Z,41.87
2022-08-30T13:28:07.822Z,41.32
2022-08-30T13:30:35.819Z,40.84
2022-08-30T13:33:03.175Z,41.79
2022-08-30T13:35:31.441Z,42.41
2022-08-30T13:38:01.991Z,42.04
2022-08-30T13:40:29.097Z,42.00
2022-08-30T13:42:56.809Z,42.29
2022-08-30T13:45:41.608Z,43.10
2022-08-30T13:48:11.440Z,42.26
2022-08-30T13:50:39.492Z,43.37
2022-08-30T13:53:09.161Z,42.41
2022-08-30T13:55:39.955Z,41.37
2022-08-30T13:58:08.535Z,40.67
2022-08-30T14:00:38.036Z,41.55
2022-08-30T14:03:05.441Z,42.04
2022-08-30T14:06:09.999Z,41.18
2022-08-30T14:08:48.279Z,39.75
2022-08-30T14:11:20.887Z,40.22
2022-08-30T14:16:44.537Z,40.43
2022-08-30T14:19:14.970Z,40.36
2022-08-30T14:21:46.616Z,40.78
2022-08-30T14:24:20.138Z,41.38
2022-08-30T14:26:52.297Z,41.43
2022-08-30T14:29:28.896Z,41.26
2022-08-30T14:31:56.936Z,41.43
2022-08-30T14:34:28.599Z,40.63
2022-08-30T14:36:56.393Z,40.34
2022-08-30T14:39:23.345Z,40.21
2022-08-30T14:41:55.352Z,40.25
2022-08-30T14:44:24.763Z,40.75
2022-08-30T14:46:52.243Z,39.83
2022-08-30T14:49:21.748Z,40.05
2022-08-30T14:51:50.602Z,40.14
2022-08-30T14:54:25.810Z,40.57
2022-08-30T14:56:53.946Z,39.91
2022-08-30T14:59:22.222Z,39.70
2022-08-30T15:01:49.075Z,40.31
2022-08-30T15:04:17.324Z,40.14
2022-08-30T15:06:48.350Z,40.36
2022-08-30T15:09:23.195Z,40.68
2022-08-30T15:11:54.969Z,40.12
2022-08-30T15:14:22.552Z,41.00
2022-08-30T15:16:49.957Z,41.18
2022-08-30T15:19:18.101Z,41.58
2022-08-30T15:21:48.406Z,40.68
2022-08-30T15:24:29.347Z,40.41
2022-08-30T15:27:00.799Z,40.54
2022-08-30T15:29:30.438Z,40.22
2022-08-30T15:32:00.722Z,40.71
2022-08-30T15:34:28.028Z,41.14
2022-08-30T15:36:56.461Z,40.53
2022-08-30T15:39:26.916Z,40.64
2022-08-30T15:41:59.797Z,40.92
2022-08-30T15:44:31.265Z,41.02
2022-08-30T15:46:58.645Z,40.82
2022-08-30T15:49:25.731Z,41.49
2022-08-30T15:51:54.202Z,41.66
2022-08-30T15:54:23.850Z,41.22
2022-08-30T15:56:59.050Z,41.08
2022-08-30T15:59:29.927Z,41.11
2022-08-30T16:01:57.839Z,41.54
2022-08-30T16:04:25.040Z,41.45
2022-08-30T16:06:53.437Z,40.59
2022-08-30T16:09:22.292Z,41.96
2022-08-30T16:11:50.365Z,41.60
2022-08-30T16:14:17.719Z,40.90
2022-08-30T16:16:48.845Z,40.38
2022-08-30T16:19:16.674Z,39.69
2022-08-30T16:21:44.201Z,39.08
2022-08-30T16:24:13.585Z,39.56
2022-08-30T16:26:43.066Z,39.41
2022-08-30T16:29:12.591Z,39.49
2022-08-30T16:31:44.313Z,40.96
2022-08-30T16:34:14.760Z,41.53
2022-08-30T16:36:41.692Z,42.08
2022-08-30T16:39:09.924Z,42.84
2022-08-30T16:41:37.881Z,43.35
2022-08-30T16:44:05.769Z,43.76
2022-08-30T16:46:34.450Z,43.77
2022-08-30T16:49:02.475Z,43.96
2022-08-30T16:51:33.229Z,44.26
2022-08-30T16:54:07.786Z,44.56
2022-08-30T16:56:37.093Z,44.71
2022-08-30T16:59:10.813Z,45.21
2022-08-30T17:01:42.270Z,45.37
2022-08-30T17:04:11.468Z,45.36
2022-08-30T17:06:41.194Z,45.21
2022-08-30T17:09:09.888Z,45.21
2022-08-30T17:11:40.210Z,45.51
2022-08-30T17:14:08.344Z,45.80
2022-08-30T17:16:37.516Z,45.92
2022-08-30T17:19:07.193Z,46.29
2022-08-30T17:21:34.801Z,46.47
2022-08-30T17:24:03.759Z,46.30
2022-08-30T17:26:34.413Z,46.69
2022-08-30T17:29:02.079Z,47.25
2022-08-30T17:31:31.076Z,47.20
2022-08-30T17:34:04.105Z,46.81
2022-08-30T17:36:36.494Z,46.71
2022-08-30T17:39:11.075Z,47.32
2022-08-30T17:41:45.406Z,46.79
2022-08-30T17:44:25.808Z,47.10
2022-08-30T17:46:55.602Z,47.16
2022-08-30T17:49:25.084Z,47.22
2022-08-30T17:51:56.325Z,47.48
2022-08-30T17:54:25.916Z,48.07
2022-08-30T17:56:54.151Z,47.78
2022-08-30T17:59:25.032Z,48.39
2022-08-30T18:01:55.376Z,48.32
2022-08-30T18:04:25.214Z,48.55
2022-08-30T18:06:55.792Z,48.72
2022-08-30T18:09:29.405Z,48.58
2022-08-30T18:11:59.309Z,48.83
2022-08-30T18:14:27.910Z,47.93
2022-08-30T18:16:55.100Z,47.43
2022-08-30T18:19:24.512Z,46.89
2022-08-30T18:21:53.155Z,47.21
2022-08-30T18:24:22.212Z,46.98
2022-08-30T18:26:51.017Z,46.68
2022-08-30T18:29:25.990Z,46.94
2022-08-30T18:32:02.802Z,47.29
2022-08-30T18:34:31.519Z,47.09
2022-08-30T18:36:58.656Z,46.49
2022-08-30T18:39:26.350Z,46.69
2022-08-30T18:41:55.691Z,46.75
2022-08-30T18:44:28.730Z,47.01
2022-08-30T18:47:08.536Z,46.91
2022-08-30T18:49:39.636Z,47.29
2022-08-30T18:52:16.579Z,47.43
2022-08-30T18:54:52.693Z,47.18
2022-08-30T18:57:26.547Z,47.75
2022-08-30T18:59:55.658Z,48.11
2022-08-30T19:02:27.511Z,48.09
2022-08-30T19:04:55.166Z,48.03
2022-08-30T19:10:13.932Z,48.49
2022-08-30T19:12:42.004Z,48.18
2022-08-30T19:15:11.830Z,48.74
2022-08-30T19:17:44.967Z,48.86
2022-08-30T19:20:17.035Z,49.06
2022-08-30T19:23:09.058Z,49.15
2022-08-30T19:25:31.450Z,49.48
2022-08-30T19:27:59.235Z,49.09
2022-08-30T19:30:29.976Z,49.55
2022-08-30T19:32:58.134Z,49.92
2022-08-30T19:35:25.676Z,49.57
2022-08-30T19:37:52.575Z,49.94
2022-08-30T19:40:23.517Z,49.63
2022-08-30T19:42:53.518Z,49.69
2022-08-30T19:45:23.646Z,49.77
2022-08-30T19:47:57.880Z,49.67
2022-08-30T19:50:27.040Z,50.01
2022-08-30T19:52:55.336Z,50.28
2022-08-30T19:55:30.294Z,49.95
2022-08-30T19:57:59.787Z,50.00
2022-08-30T20:00:31.149Z,50.53
2022-08-30T20:03:00.165Z,50.49
2022-08-30T20:05:30.598Z,50.59
2022-08-30T20:08:01.688Z,50.44
2022-08-30T20:10:29.481Z,50.65
2022-08-30T20:12:57.324Z,50.73
2022-08-30T20:15:25.867Z,50.79
2022-08-30T20:20:40.268Z,51.16
2022-08-30T20:23:07.403Z,50.80
2022-08-30T20:24:31.785Z,48.32
2022-08-30T20:25:36.487Z,51.27
2022-08-30T20:28:05.455Z,51.79
2022-08-30T20:30:33.349Z,51.77
2022-08-30T20:33:07.077Z,51.66
2022-08-30T20:35:36.572Z,52.00
2022-08-30T20:38:06.506Z,52.34
2022-08-30T20:40:38.922Z,52.02
2022-08-30T20:43:07.858Z,52.63
2022-08-30T20:45:35.177Z,52.58
2022-08-30T20:48:03.177Z,52.13
2022-08-30T20:50:31.027Z,52.70
2022-08-30T20:52:58.669Z,52.49
2022-08-30T20:55:25.677Z,52.65
2022-08-30T20:57:52.903Z,52.77
2022-08-30T21:00:20.698Z,53.18
2022-08-30T21:02:48.760Z,53.69
2022-08-30T21:05:17.614Z,53.26
2022-08-30T21:07:45.876Z,53.35
2022-08-30T21:10:13.931Z,53.95
2022-08-30T21:12:42.797Z,53.56
2022-08-30T21:15:34.113Z,53.56
2022-08-30T21:17:58.233Z,53.84
2022-08-30T21:20:25.134Z,54.40
2022-08-30T21:22:52.159Z,54.10
2022-08-30T21:25:19.511Z,54.25
2022-08-30T21:27:46.300Z,54.31
2022-08-30T21:30:14.693Z,54.42
2022-08-30T21:32:41.950Z,54.29
2022-08-30T21:35:28.392Z,54.32
2022-08-30T21:37:55.432Z,54.30
2022-08-30T21:40:22.505Z,54.33
2022-08-30T21:42:49.453Z,54.42
2022-08-30T21:45:16.629Z,54.38
2022-08-30T21:47:43.954Z,54.69
2022-08-30T21:50:12.045Z,55.05
2022-08-30T21:52:39.104Z,55.31
2022-08-30T21:55:06.527Z,55.38
2022-08-30T21:57:33.558Z,54.98
2022-08-30T22:00:00.659Z,55.71
2022-08-30T22:02:29.131Z,55.45
2022-08-30T22:04:56.105Z,55.93
2022-08-30T22:07:23.236Z,55.72
2022-08-30T22:09:50.242Z,55.60
2022-08-30T22:12:17.559Z,56.19
2022-08-30T22:14:44.638Z,56.08
2022-08-30T22:17:12.531Z,56.56
2022-08-30T22:19:40.036Z,56.90
2022-08-30T22:22:07.252Z,56.50
2022-08-30T22:24:34.096Z,56.29
2022-08-30T22:27:05.120Z,56.38
2022-08-30T22:29:32.917Z,56.07
2022-08-30T22:32:00.133Z,55.77
2022-08-30T22:34:27.185Z,56.21
2022-08-30T22:36:54.336Z,56.00
2022-08-30T22:39:21.150Z,56.13
2022-08-30T22:41:48.095Z,55.67
2022-08-30T22:44:15.039Z,55.78
2022-08-30T22:46:42.158Z,55.69
2022-08-30T22:49:10.839Z,55.71
2022-08-30T22:51:41.854Z,56.19
2022-08-30T22:54:10.213Z,55.98
2022-08-30T22:56:39.471Z,56.47
2022-08-30T22:59:07.470Z,56.37
2022-08-30T23:01:43.138Z,56.61
2022-08-30T23:04:11.849Z,56.44
2022-08-30T23:06:39.550Z,56.37
2022-08-30T23:09:07.337Z,56.76
2022-08-30T23:11:35.084Z,56.99
2022-08-30T23:14:04.231Z,56.93
2022-08-30T23:16:32.802Z,56.72
2022-08-30T23:19:00.600Z,56.76
2022-08-30T23:21:31.045Z,56.91
2022-08-30T23:24:17.885Z,56.61
2022-08-30T23:27:05.138Z,57.14
2022-08-30T23:29:51.964Z,56.58
2022-08-30T23:32:38.490Z,56.78
2022-08-30T23:35:31.479Z,56.61
2022-08-30T23:38:20.954Z,56.29
2022-08-30T23:41:06.215Z,56.09
2022-08-30T23:43:51.685Z,56.03
2022-08-30T23:46:39.607Z,56.21
2022-08-30T23:49:25.125Z,56.22
2022-08-30T23:52:10.410Z,56.40
2022-08-30T23:54:57.242Z,56.47
2022-08-30T23:57:45.038Z,56.23
